createdAt,value
2022-12-01T00:03:09.421Z,99140.47
2022-12-01T00:08:11.652Z,99141.38
2022-12-01T00:13:13.784Z,99132.56
2022-12-01T00:18:15.692Z,99136.28
2022-12-01T00:23:17.514Z,99145.31
2022-12-01T00:28:19.329Z,99134.06
2022-12-01T00:33:21.152Z,99130.06
2022-12-01T00:38:23.006Z,99127.38
2022-12-01T00:43:25.153Z,99123.91
2022-12-01T00:48:27.301Z,99126.63
2022-12-01T00:53:29.510Z,99131.50
2022-12-01T00:58:31.317Z,99135.03
2022-12-01T01:03:34.243Z,99131.03
2022-12-01T01:08:36.934Z,99132.31
2022-12-01T01:13:38.988Z,99136.31
2022-12-01T01:18:40.895Z,99129.34
2022-12-01T01:23:43.185Z,99134.78
2022-12-01T01:28:45.649Z,99139.53
2022-12-01T01:33:47.730Z,99149.72
2022-12-01T01:38:53.408Z,99136.94
2022-12-01T01:43:58.469Z,99132.16
2022-12-01T01:49:08.342Z,99139.16
2022-12-01T01:54:15.792Z,99144.53
2022-12-01T01:59:22.588Z,99144.00
2022-12-01T02:04:25.531Z,99141.31
2022-12-01T02:09:27.408Z,99138.09
2022-12-01T02:14:37.904Z,99134.84
2022-12-01T02:19:55.735Z,99132.75
2022-12-01T02:25:15.627Z,99135.97
2022-12-01T02:30:45.820Z,99149.34
2022-12-01T02:36:10.670Z,99133.81
2022-12-01T02:41:20.548Z,99136.47
2022-12-01T02:46:34.119Z,99142.91
2022-12-01T02:51:40.178Z,99145.84
2022-12-01T02:56:44.983Z,99147.19
2022-12-01T03:02:10.432Z,99141.00
2022-12-01T03:07:40.867Z,99143.97
2022-12-01T03:12:48.811Z,99136.53
2022-12-01T03:17:56.327Z,99138.94
2022-12-01T03:23:16.726Z,99138.94
2022-12-01T03:28:23.629Z,99142.72
2022-12-01T03:33:32.344Z,99136.56
2022-12-01T03:38:36.398Z,99143.78
2022-12-01T03:43:43.128Z,99140.28
2022-12-01T03:48:45.649Z,99139.19
2022-12-01T03:53:55.553Z,99145.59
2022-12-01T03:59:00.372Z,99141.31
2022-12-01T04:04:11.934Z,99153.13
2022-12-01T04:09:13.929Z,99163.81
2022-12-01T04:14:15.790Z,99153.13
2022-12-01T04:19:17.817Z,99158.47
2022-12-01T04:24:19.838Z,99142.41
2022-12-01T04:29:21.793Z,99154.69
2022-12-01T04:34:23.611Z,99153.91
2022-12-01T04:39:25.487Z,99150.69
2022-12-01T04:44:31.591Z,99145.09
2022-12-01T04:49:37.396Z,99142.44
2022-12-01T04:54:39.319Z,99150.97
2022-12-01T04:59:41.209Z,99157.66
2022-12-01T05:04:46.191Z,99156.31
2022-12-01T05:09:48.369Z,99159.50
2022-12-01T05:14:50.568Z,99158.16
2022-12-01T05:20:11.310Z,99169.09
2022-12-01T05:25:13.152Z,99162.19
2022-12-01T05:30:15.070Z,99168.31
2022-12-01T05:35:16.931Z,99163.81
2022-12-01T05:40:18.853Z,99174.75
2022-12-01T05:45:20.703Z,99170.75
2022-12-01T05:50:23.777Z,99179.31
2022-12-01T05:55:25.638Z,99181.97
2022-12-01T06:00:27.684Z,99188.66
2022-12-01T06:05:29.547Z,99182.75
2022-12-01T06:10:31.348Z,99170.72
2022-12-01T06:15:33.243Z,99182.47
2022-12-01T06:20:35.294Z,99182.47
2022-12-01T06:25:37.268Z,99187.63
2022-12-01T06:30:39.089Z,99190.31
2022-12-01T06:35:40.981Z,99187.38
2022-12-01T06:40:44.200Z,99190.84
2022-12-01T06:45:46.117Z,99198.59
2022-12-01T06:50:48.063Z,99201.00
2022-12-01T06:55:49.886Z,99202.59
2022-12-01T07:00:52.396Z,99208.22
2022-12-01T07:06:01.805Z,99199.94
2022-12-01T07:11:09.961Z,99208.22
2022-12-01T07:16:12.322Z,99215.16
2022-12-01T07:21:15.942Z,99214.63
2022-12-01T07:26:18.699Z,99222.66
2022-12-01T07:31:21.551Z,99229.63
2022-12-01T07:36:23.444Z,99236.53
2022-12-01T07:41:25.518Z,99236.53
2022-12-01T07:46:28.514Z,99225.84
2022-12-01T07:51:30.371Z,99227.44
2022-12-01T07:56:33.106Z,99232.81
2022-12-01T08:01:35.329Z,99229.63
2022-12-01T08:06:37.240Z,99239.22
2022-12-01T08:11:39.088Z,99238.97
2022-12-01T08:16:40.903Z,99235.75
2022-12-01T08:21:42.727Z,99241.38
2022-12-01T08:26:44.761Z,99234.16
2022-12-01T08:31:46.616Z,99240.31
2022-12-01T08:36:48.408Z,99239.25
2022-12-01T08:41:50.292Z,99241.88
2022-12-01T08:46:52.200Z,99239.22
2022-12-01T08:51:54.115Z,99244.31
2022-12-01T08:56:55.932Z,99249.66
2022-12-01T09:01:59.694Z,99256.59
2022-12-01T09:07:04.301Z,99246.19
2022-12-01T09:12:07.621Z,99243.50
2022-12-01T09:17:09.706Z,99255.25
2022-12-01T09:22:12.294Z,99250.47
2022-12-01T09:27:14.452Z,99250.47
2022-12-01T09:32:16.275Z,99251.50
2022-12-01T09:37:18.062Z,99241.34
2022-12-01T09:42:32.257Z,99246.66
2022-12-01T09:47:38.718Z,99231.16
2022-12-01T09:52:45.882Z,99235.97
2022-12-01T09:57:50.227Z,99235.44
2022-12-01T10:02:55.192Z,99238.34
2022-12-01T10:08:02.645Z,99231.16
2022-12-01T10:13:17.079Z,99229.56
2022-12-01T10:18:21.829Z,99232.78
2022-12-01T10:23:47.851Z,99233.56
2022-12-01T10:29:05.020Z,99227.44
2022-12-01T10:34:21.499Z,99222.59
2022-12-01T10:39:36.389Z,99214.56
2022-12-01T10:44:38.524Z,99211.88
2022-12-01T10:49:41.363Z,99213.22
2022-12-01T10:54:43.163Z,99203.28
2022-12-01T11:00:50.831Z,99197.41
2022-12-01T11:05:42.844Z,99197.13
2022-12-01T11:10:49.156Z,99200.59
2022-12-01T11:15:54.009Z,99201.16
2022-12-01T11:21:08.647Z,99204.88
2022-12-01T11:26:22.495Z,99201.16
2022-12-01T11:31:36.239Z,99201.16
2022-12-01T11:36:47.325Z,99199.00
2022-12-01T11:41:54.678Z,99188.31
2022-12-01T11:47:21.783Z,99184.00
2022-12-01T11:52:27.655Z,99181.34
2022-12-01T11:57:35.138Z,99179.75
2022-12-01T12:02:51.434Z,99179.75
2022-12-01T12:08:02.225Z,99179.47
2022-12-01T12:13:16.507Z,99177.59
2022-12-01T12:18:24.449Z,99183.19
2022-12-01T12:24:04.674Z,99168.47
2022-12-01T12:29:25.020Z,99170.59
2022-12-01T12:34:38.730Z,99166.31
2022-12-01T12:39:52.294Z,99172.16
2022-12-01T12:45:36.130Z,99172.72
2022-12-01T12:51:15.246Z,99166.78
2022-12-01T12:56:20.874Z,99162.47
2022-12-01T13:01:29.245Z,99164.13
2022-12-01T13:06:37.649Z,99164.69
2022-12-01T13:11:47.675Z,99160.97
2022-12-01T13:16:53.497Z,99161.53
2022-12-01T13:21:56.359Z,99163.09
2022-12-01T13:27:03.397Z,99158.84
2022-12-01T13:32:07.494Z,99170.66
2022-12-01T13:37:10.833Z,99164.25
2022-12-01T13:42:26.985Z,99169.81
2022-12-01T13:47:47.710Z,99161.81
2022-12-01T13:52:50.661Z,99158.34
2022-12-01T13:57:58.380Z,99158.63
2022-12-01T14:03:15.284Z,99156.22
2022-12-01T14:08:23.453Z,99160.53
2022-12-01T14:13:27.168Z,99153.59
2022-12-01T14:18:48.738Z,99156.25
2022-12-01T14:24:05.090Z,99148.72
2022-12-01T14:29:10.674Z,99150.34
2022-12-01T14:34:24.250Z,99149.78
2022-12-01T14:39:44.979Z,99141.50
2022-12-01T14:44:54.253Z,99138.00
2022-12-01T14:50:03.072Z,99153.00
2022-12-01T14:55:16.664Z,99139.63
2022-12-01T15:00:22.553Z,99141.78
2022-12-01T15:05:27.514Z,99142.59
2022-12-01T15:10:35.212Z,99134.84
2022-12-01T15:15:37.793Z,99132.97
2022-12-01T15:20:44.911Z,99131.88
2022-12-01T15:25:49.550Z,99139.38
2022-12-01T15:30:54.918Z,99130.84
2022-12-01T15:35:58.906Z,99138.59
2022-12-01T15:46:34.647Z,99136.78
2022-12-01T15:51:36.710Z,99130.88
2022-12-01T15:56:41.000Z,99130.63
2022-12-01T16:01:45.243Z,99144.00
2022-12-01T16:07:00.319Z,99138.41
2022-12-01T16:12:20.577Z,99139.72
2022-12-01T16:17:24.159Z,99137.56
2022-12-01T16:22:26.004Z,99147.72
2022-12-01T16:27:30.186Z,99146.13
2022-12-01T16:32:41.117Z,99139.72
2022-12-01T16:37:42.952Z,99146.16
2022-12-01T16:42:45.312Z,99148.00
2022-12-01T16:47:48.998Z,99153.13
2022-12-01T16:52:50.835Z,99150.94
2022-12-01T16:57:52.820Z,99149.34
2022-12-01T17:02:54.672Z,99156.31
2022-12-01T17:07:56.750Z,99156.84
2022-12-01T17:12:58.692Z,99145.59
2022-12-01T17:18:00.718Z,99151.50
2022-12-01T17:23:02.697Z,99145.09
2022-12-01T17:28:04.529Z,99142.94
2022-12-01T17:33:06.398Z,99145.59
2022-12-01T17:38:08.455Z,99141.31
2022-12-01T17:43:10.268Z,99143.44
2022-12-01T17:48:12.145Z,99149.88
2022-12-01T17:53:14.044Z,99150.38
2022-12-01T17:58:18.262Z,99146.66
2022-12-01T18:03:20.855Z,99153.63
2022-12-01T18:08:23.386Z,99148.81
2022-12-01T18:13:25.216Z,99160.56
2022-12-01T18:18:27.002Z,99151.97
2022-12-01T18:23:28.860Z,99147.69
2022-12-01T18:28:31.063Z,99150.88
2022-12-01T18:33:34.528Z,99155.69
2022-12-01T18:38:36.354Z,99148.19
2022-12-01T18:43:38.222Z,99144.97
2022-12-01T18:48:48.501Z,99149.72
2022-12-01T18:53:54.738Z,99135.03
2022-12-01T18:58:58.650Z,99141.69
2022-12-01T19:04:01.552Z,99144.63
2022-12-01T19:09:05.769Z,99137.44
2022-12-01T19:14:15.576Z,99141.69
2022-12-01T19:19:17.414Z,99126.97
2022-12-01T19:24:19.384Z,99133.63
2022-12-01T19:29:21.389Z,99133.63
2022-12-01T19:34:24.322Z,99132.53
2022-12-01T19:39:26.179Z,99131.41
2022-12-01T19:44:28.000Z,99132.22
2022-12-01T19:49:29.970Z,99129.25
2022-12-01T19:54:33.135Z,99133.00
2022-12-01T19:59:34.951Z,99136.22
2022-12-01T20:04:38.968Z,99128.69
2022-12-01T20:09:46.856Z,99132.47
2022-12-01T20:14:51.632Z,99125.81
2022-12-01T20:19:53.625Z,99136.22
2022-12-01T20:24:55.415Z,99129.25
2022-12-01T20:29:57.377Z,99129.81
2022-12-01T20:34:59.242Z,99122.28
2022-12-01T20:40:01.126Z,99119.06
2022-12-01T20:45:03.162Z,99114.50
2022-12-01T20:50:06.129Z,99123.31
2022-12-01T20:55:09.123Z,99108.34
2022-12-01T21:00:13.251Z,99098.44
2022-12-01T21:05:15.279Z,99097.88
2022-12-01T21:10:19.944Z,99100.25
2022-12-01T21:15:30.356Z,99097.88
2022-12-01T21:20:36.128Z,99093.66
2022-12-01T21:25:39.731Z,99099.78
2022-12-01T21:30:41.624Z,99099.22
2022-12-01T21:35:43.481Z,99104.81
2022-12-01T21:40:46.803Z,99103.75
2022-12-01T21:46:14.175Z,99096.78
2022-12-01T21:51:24.443Z,99091.16
2022-12-01T21:56:28.650Z,99087.69
2022-12-01T22:01:32.425Z,99087.69
2022-12-01T22:06:40.417Z,99090.09
2022-12-01T22:11:44.922Z,99089.00
2022-12-01T22:16:58.486Z,99085.25
2022-12-01T22:22:26.500Z,99089.00
2022-12-01T22:27:39.260Z,99088.47
2022-12-01T22:32:57.153Z,99088.22
2022-12-01T22:38:11.171Z,99093.88
2022-12-01T22:43:15.881Z,99078.84
2022-12-01T22:48:54.738Z,99074.84
2022-12-01T22:54:14.824Z,99076.47
2022-12-01T22:59:19.370Z,99066.06
2022-12-01T23:04:34.495Z,99067.66
2022-12-01T23:09:40.974Z,99056.38
2022-12-01T23:14:51.041Z,99058.00
2022-12-01T23:20:10.180Z,99047.84
2022-12-01T23:25:18.659Z,99043.03
2022-12-01T23:30:22.165Z,99044.34
2022-12-01T23:35:24.005Z,99036.66
2022-12-01T23:40:35.211Z,99029.66
2022-12-01T23:45:37.504Z,99030.22
2022-12-01T23:50:39.343Z,99032.63
2022-12-01T23:55:41.154Z,99025.94
